aviador You're here:

KTDR Decoded Metar

in
Report Time2017-06-25 18:56:00
UTC Time2017-06-25 19:12:28
Flight Rules vfr VFR
Wind240° at 06 Gusting to 15 kt
W.Rank240° ranks 13
Current wind is below 240° avg. (6.3)
Visibility9999 m
Phenomena:N/A
Clouds:Few 010 Hf
Expected CloudBase > 1,200 ft AGL from Temp-Dew spread
CeilingNone
Temp29°C
Dew Point26°C (84% RH)
Heat Index35.6°C
QNH1018 hPa
Raw Report
KTDR 251856Z AUTO 24006G15KT 10SM FEW010 29/26 A3007 RMK AO2 LTG
DSNT N-NE SLP186 T02930257 $=

Extra information for KTDR:More info

Social comments